Sepinggan International Airport
WALL : now visible

Airfield :











YOU CAN JOIN US ON...

 
LOGIN :

Register | Disclaimer

   EN    FR    IT 

 









Legend :    VFR   Marginal VFR   IFR   Intensive IFR   Very Intensive IFR
Visi :
Ceiling :
>= 8 km
>= 3000ft
5 to 8 km
1000 to 3000 ft
1500m to 5 km
500 to 1000 ft
800 to 1500m
200 to 500 ft
< 800m
< 200 ft
Symbols :   Thunderstorms  Fog  Heavy snow  Heavy precipitations  Wind > 20 kt






- Airport Elevation : 12 ft
- IATA code : BPN


WALL - Sepinggan International

CURRENT METAR :
  • 181000Z 22002KT 9999 FEW020 27/24 Q1010

EXPIRED METARs :
  • 180930Z 21002KT 9999 FEW020 27/25 Q1009
  • 180830Z 23002KT 9999 FEW020 27/25 Q1009
  • 180800Z 21003KT 9999 FEW020 28/25 Q1009

TAF TAF WALL
Valid from the 18 at 06:00 until the 19 at 12:00 UTC


180500Z 1806/1912 31003KT 8000 -RA FEW020
BECMG 1806/1808 13003KT 9999
WAAF FIR / Asia



MET'MAP, your aeronautical weather chart ! - Copyright ORBIFLY December 2007 - Disclaimer

ORBIFLY MET'MAP TEAM :

Programming & Development : Alexandra Zaïnal
Concept & original design : Baudouin d'Aumeries
Assistance for programming : Marc-Olivier Méhu
Technical & hardware support : Manuel Goepfert

Contact : metmap@orbifly.com




SOURCES & CREDITS :

   NOAA       Earth
Advisory